createdAt,value
2023-02-13T04:46:31.213Z,608.05
2023-02-13T04:48:57.908Z,601.75
2023-02-13T04:51:24.555Z,600.60
2023-02-13T04:53:51.243Z,605.83
2023-02-13T04:56:19.925Z,604.33
2023-02-13T04:58:46.837Z,607.05
2023-02-13T05:01:15.054Z,611.42
2023-02-13T05:03:42.476Z,607.90
2023-02-13T05:06:09.377Z,605.73
2023-02-13T05:08:36.232Z,603.55
2023-02-13T05:11:03.036Z,604.20
2023-02-13T05:13:29.789Z,601.10
2023-02-13T05:15:56.526Z,602.95
2023-02-13T05:18:23.363Z,600.95
2023-02-13T05:21:10.165Z,607.53
2023-02-13T05:23:37.430Z,601.80
2023-02-13T05:26:04.279Z,608.50
2023-02-13T05:28:49.565Z,603.22
2023-02-13T05:31:16.359Z,605.28
2023-02-13T05:33:43.208Z,598.97
2023-02-13T05:36:09.957Z,602.33
2023-02-13T05:38:36.777Z,598.65
2023-02-13T05:41:03.502Z,593.17
2023-02-13T05:43:30.645Z,599.58
2023-02-13T05:46:08.810Z,606.95
2023-02-13T05:48:36.310Z,600.80
2023-02-13T05:51:03.110Z,591.45
2023-02-13T05:53:29.957Z,598.00
2023-02-13T05:55:57.024Z,604.17
2023-02-13T05:58:23.895Z,610.73
2023-02-13T06:00:50.665Z,605.40
2023-02-13T06:03:17.418Z,602.83
2023-02-13T06:05:44.344Z,596.85
2023-02-13T06:08:10.999Z,592.65
2023-02-13T06:10:37.704Z,605.45
2023-02-13T06:13:04.506Z,596.85
2023-02-13T06:15:31.146Z,628.35
2023-02-13T06:17:57.852Z,597.63
2023-02-13T06:20:24.816Z,602.35
2023-02-13T06:22:51.955Z,607.17
2023-02-13T06:25:19.566Z,594.17
2023-02-13T06:27:46.956Z,600.38
2023-02-13T06:30:14.890Z,598.08
2023-02-13T06:32:41.742Z,590.97
2023-02-13T06:35:09.553Z,598.50
2023-02-13T06:37:36.637Z,600.03
2023-02-13T06:40:03.939Z,604.50
2023-02-13T06:42:30.680Z,602.38
2023-02-13T06:44:57.391Z,598.60
2023-02-13T06:47:24.092Z,600.40
2023-02-13T06:49:50.836Z,596.10
2023-02-13T06:52:17.603Z,594.35
2023-02-13T06:54:47.923Z,601.47
2023-02-13T06:57:16.063Z,602.35
2023-02-13T06:59:43.282Z,603.15
2023-02-13T07:02:11.357Z,600.47
2023-02-13T07:04:38.341Z,598.08
2023-02-13T07:07:05.403Z,609.97
2023-02-13T07:09:32.376Z,604.83
2023-02-13T07:12:02.100Z,601.17
2023-02-13T07:14:28.778Z,596.50
2023-02-13T07:16:55.428Z,595.72
2023-02-13T07:19:22.150Z,587.80
2023-02-13T07:21:49.006Z,599.15
2023-02-13T07:24:15.692Z,594.92
2023-02-13T07:26:42.329Z,590.22
2023-02-13T07:29:11.981Z,587.90
2023-02-13T07:31:39.830Z,595.88
2023-02-13T07:34:06.690Z,597.08
2023-02-13T07:36:33.391Z,592.17
2023-02-13T07:39:00.111Z,593.03
2023-02-13T07:41:27.015Z,591.78
2023-02-13T07:43:54.360Z,591.75
2023-02-13T07:46:21.212Z,592.67
2023-02-13T07:48:47.962Z,584.15
2023-02-13T07:51:14.699Z,591.17
2023-02-13T07:53:41.377Z,594.50
2023-02-13T07:56:09.034Z,595.58
2023-02-13T07:58:36.716Z,601.63
2023-02-13T08:01:11.891Z,603.10
2023-02-13T08:03:39.318Z,595.00
2023-02-13T08:06:07.158Z,598.72
2023-02-13T08:08:34.475Z,595.67
2023-02-13T08:11:30.244Z,596.78
2023-02-13T08:13:56.923Z,598.33
2023-02-13T08:16:23.775Z,596.70
2023-02-13T08:18:50.452Z,599.95
2023-02-13T08:21:17.114Z,605.30
2023-02-13T08:23:43.800Z,599.03
2023-02-13T08:26:11.031Z,604.65
2023-02-13T08:28:38.093Z,602.60
2023-02-13T08:31:11.927Z,602.93
2023-02-13T08:33:39.727Z,605.58
2023-02-13T08:36:06.987Z,610.03
2023-02-13T08:38:33.971Z,603.13
2023-02-13T08:41:00.680Z,602.88
2023-02-13T08:43:27.441Z,610.92
2023-02-13T08:45:54.294Z,607.50
2023-02-13T08:48:21.035Z,606.25
2023-02-13T08:50:47.703Z,612.60
2023-02-13T08:53:14.357Z,604.67
2023-02-13T08:55:41.074Z,611.88
2023-02-13T08:58:07.747Z,605.55
2023-02-13T09:00:34.424Z,615.13
2023-02-13T09:03:02.610Z,615.95
2023-02-13T09:05:31.642Z,610.17
2023-02-13T09:08:05.167Z,600.47
2023-02-13T09:10:32.836Z,607.03
2023-02-13T09:13:01.230Z,606.60
2023-02-13T09:15:27.928Z,619.20
2023-02-13T09:17:54.631Z,611.45
2023-02-13T09:20:21.487Z,626.20
2023-02-13T09:22:48.204Z,626.92
2023-02-13T09:25:15.055Z,630.17
2023-02-13T09:27:42.081Z,632.97
2023-02-13T09:30:09.933Z,629.95
2023-02-13T09:32:37.747Z,626.42
2023-02-13T09:35:06.563Z,635.00
2023-02-13T09:37:33.363Z,632.05
2023-02-13T09:40:00.070Z,637.50
2023-02-13T09:42:31.569Z,638.97
2023-02-13T09:45:01.655Z,649.40
2023-02-13T09:47:41.294Z,631.47
2023-02-13T09:50:11.008Z,641.10
2023-02-13T09:52:39.002Z,638.92
2023-02-13T09:55:17.582Z,634.53
2023-02-13T09:58:01.515Z,649.35
2023-02-13T10:00:42.988Z,642.73
2023-02-13T10:03:12.790Z,643.22
2023-02-13T10:06:04.718Z,644.20
2023-02-13T10:08:39.291Z,650.92
2023-02-13T10:11:44.146Z,651.90
2023-02-13T10:14:18.553Z,647.72
2023-02-13T10:16:45.194Z,647.78
2023-02-13T10:19:36.835Z,649.67
2023-02-13T10:22:18.540Z,648.67
2023-02-13T10:25:12.300Z,650.97
2023-02-13T10:27:43.348Z,653.80
2023-02-13T10:30:31.755Z,647.08
2023-02-13T10:33:19.681Z,646.13
2023-02-13T10:36:03.146Z,649.42
2023-02-13T10:38:32.651Z,650.22
2023-02-13T10:41:06.507Z,648.90
2023-02-13T10:43:59.067Z,647.03
2023-02-13T10:46:33.498Z,646.78
2023-02-13T10:49:51.383Z,649.70
2023-02-13T10:52:43.601Z,654.37
2023-02-13T10:55:39.170Z,648.30
2023-02-13T10:58:20.299Z,656.45
2023-02-13T11:01:02.758Z,654.22
2023-02-13T11:03:30.667Z,651.78
2023-02-13T11:05:59.524Z,658.22
2023-02-13T11:08:26.393Z,657.87
2023-02-13T11:10:53.070Z,659.63
2023-02-13T11:13:25.417Z,659.63
2023-02-13T11:16:07.905Z,664.38
2023-02-13T11:18:41.364Z,664.45
2023-02-13T11:21:18.557Z,657.17
2023-02-13T11:23:57.425Z,666.03
2023-02-13T11:26:34.846Z,665.38
2023-02-13T11:29:06.565Z,677.65
2023-02-13T11:31:35.753Z,677.90
2023-02-13T11:34:29.268Z,669.63
2023-02-13T11:37:17.576Z,663.92
2023-02-13T11:39:46.708Z,671.78
2023-02-13T11:42:16.299Z,668.50
2023-02-13T11:44:48.323Z,676.20
2023-02-13T11:47:16.052Z,679.83
2023-02-13T11:49:47.277Z,676.15
2023-02-13T11:52:27.152Z,683.10
2023-02-13T11:55:44.375Z,680.33
2023-02-13T11:58:11.109Z,671.53
2023-02-13T12:00:40.394Z,677.10
2023-02-13T12:03:22.579Z,672.78
2023-02-13T12:06:15.719Z,684.80
2023-02-13T12:08:45.763Z,685.83
2023-02-13T12:11:27.075Z,700.80
2023-02-13T12:13:55.105Z,697.78
2023-02-13T12:16:30.317Z,682.60
2023-02-13T12:19:01.285Z,684.00
2023-02-13T12:21:59.805Z,686.35
2023-02-13T12:25:02.119Z,689.65
2023-02-13T12:28:07.628Z,699.97
2023-02-13T12:30:41.009Z,709.40
2023-02-13T12:33:33.080Z,716.70
2023-02-13T12:36:10.102Z,690.95
2023-02-13T12:38:43.027Z,702.53
2023-02-13T12:41:38.386Z,711.22
2023-02-13T12:44:33.671Z,712.53
2023-02-13T12:47:05.846Z,721.03
2023-02-13T12:49:51.278Z,719.13
2023-02-13T12:52:20.652Z,712.78
2023-02-13T12:55:02.755Z,707.73
2023-02-13T12:57:57.492Z,717.47
2023-02-13T13:00:42.970Z,721.97
2023-02-13T13:03:39.663Z,718.50
2023-02-13T13:06:21.422Z,716.53
2023-02-13T13:09:00.004Z,724.13
2023-02-13T13:11:41.900Z,717.25
2023-02-13T13:14:20.310Z,718.55
2023-02-13T13:17:14.815Z,721.10
2023-02-13T13:20:00.534Z,715.92
2023-02-13T13:22:37.449Z,716.50
2023-02-13T13:25:22.792Z,705.63
2023-02-13T13:27:53.679Z,711.30
2023-02-13T13:30:36.150Z,713.53
2023-02-13T13:33:16.711Z,721.20
2023-02-13T13:36:16.300Z,724.17
2023-02-13T13:39:16.543Z,718.55
2023-02-13T13:42:00.969Z,722.05
2023-02-13T13:44:50.246Z,719.10
2023-02-13T13:47:41.932Z,716.33
2023-02-13T13:50:27.503Z,724.00
2023-02-13T13:53:15.648Z,728.85
2023-02-13T13:55:56.151Z,720.70
2023-02-13T13:58:24.011Z,718.33
2023-02-13T14:01:38.930Z,732.00
2023-02-13T14:04:34.363Z,726.55
2023-02-13T14:07:00.983Z,718.85
2023-02-13T14:09:27.625Z,718.10
2023-02-13T14:11:58.483Z,719.97
2023-02-13T14:14:28.198Z,722.47
2023-02-13T14:16:57.511Z,725.60
2023-02-13T14:19:26.025Z,718.10
2023-02-13T14:21:53.542Z,723.78
2023-02-13T14:24:22.329Z,724.72
2023-02-13T14:27:05.694Z,715.03
2023-02-13T14:29:33.990Z,718.97
2023-02-13T14:32:03.803Z,726.40
2023-02-13T14:34:34.804Z,725.50
2023-02-13T14:37:24.437Z,733.65
2023-02-13T14:40:12.255Z,728.92
2023-02-13T14:42:40.109Z,734.00
2023-02-13T14:45:16.819Z,730.28
2023-02-13T14:47:53.396Z,735.03
2023-02-13T14:50:40.368Z,735.83
2023-02-13T14:53:16.000Z,742.88
2023-02-13T14:55:46.465Z,743.70
2023-02-13T14:58:20.947Z,754.17
2023-02-13T15:00:50.366Z,764.28
2023-02-13T15:03:19.974Z,760.97
2023-02-13T15:05:52.493Z,786.25
2023-02-13T15:08:29.930Z,780.47
2023-02-13T15:10:57.731Z,783.70
2023-02-13T15:13:33.847Z,810.17
2023-02-13T15:16:12.118Z,812.83
2023-02-13T15:18:43.400Z,816.92
2023-02-13T15:21:16.967Z,818.60
2023-02-13T15:23:48.900Z,807.15
2023-02-13T15:26:26.271Z,815.17
2023-02-13T15:29:00.296Z,819.33
2023-02-13T15:31:33.046Z,811.17
2023-02-13T15:34:01.125Z,800.83
2023-02-13T15:36:36.416Z,798.28
2023-02-13T15:39:09.559Z,785.70
2023-02-13T15:41:40.848Z,779.67
2023-02-13T15:44:07.643Z,769.60
2023-02-13T15:46:36.573Z,759.70
2023-02-13T15:49:17.979Z,756.30
2023-02-13T15:51:45.301Z,748.23
2023-02-13T15:54:33.103Z,745.88
2023-02-13T15:57:04.264Z,731.03
2023-02-13T15:59:39.466Z,727.33
2023-02-13T16:02:14.680Z,713.60
2023-02-13T16:04:42.174Z,706.70
2023-02-13T16:07:14.051Z,701.97
2023-02-13T16:09:41.168Z,699.38
2023-02-13T16:12:22.860Z,671.40
2023-02-13T16:14:52.208Z,668.20
2023-02-13T16:17:34.773Z,664.92
2023-02-13T16:20:08.579Z,655.57
2023-02-13T16:22:45.365Z,653.55
2023-02-13T16:25:35.801Z,648.17
2023-02-13T16:28:14.208Z,634.93
2023-02-13T16:30:43.703Z,624.80
2023-02-13T16:33:16.535Z,624.10
2023-02-13T16:36:01.703Z,624.72
2023-02-13T16:38:33.226Z,607.08
2023-02-13T16:41:05.769Z,608.30
2023-02-13T16:43:41.441Z,608.95
2023-02-13T16:46:16.340Z,599.83
2023-02-13T16:48:44.633Z,593.25
2023-02-13T16:51:11.719Z,589.92
2023-02-13T16:53:39.512Z,590.33
2023-02-13T16:56:11.255Z,578.50
2023-02-13T16:58:37.953Z,585.17
2023-02-13T17:01:05.367Z,586.63
2023-02-13T17:03:32.838Z,584.50
2023-02-13T17:06:03.354Z,586.40
2023-02-13T17:08:31.956Z,578.95
2023-02-13T17:11:06.883Z,575.78
2023-02-13T17:13:34.241Z,571.17
2023-02-13T17:16:00.984Z,572.20
2023-02-13T17:18:27.747Z,571.88
2023-02-13T17:20:54.998Z,570.53
2023-02-13T17:23:24.426Z,564.00
2023-02-13T17:25:53.659Z,569.80
2023-02-13T17:28:24.196Z,566.53
2023-02-13T17:30:53.991Z,572.22
2023-02-13T17:33:26.384Z,575.53
2023-02-13T17:35:54.158Z,566.22
2023-02-13T17:38:21.174Z,570.92
2023-02-13T17:40:48.682Z,562.08
2023-02-13T17:43:17.519Z,564.28
2023-02-13T17:45:45.604Z,567.07
2023-02-13T17:48:12.247Z,564.03
2023-02-13T17:50:39.142Z,564.77
2023-02-13T17:53:18.838Z,560.80
2023-02-13T17:55:45.487Z,543.23
2023-02-13T17:58:12.116Z,547.47
2023-02-13T18:00:38.800Z,549.35
2023-02-13T18:03:05.541Z,546.97
2023-02-13T18:05:33.120Z,541.10
2023-02-13T18:08:02.594Z,528.38
2023-02-13T18:10:31.735Z,527.80
2023-02-13T18:13:03.951Z,517.90
2023-02-13T18:15:35.858Z,522.60
2023-02-13T18:18:02.697Z,523.88
2023-02-13T18:20:29.354Z,518.45
2023-02-13T18:22:56.031Z,515.33
2023-02-13T18:25:23.580Z,511.67
2023-02-13T18:27:50.895Z,516.55
2023-02-13T18:30:19.763Z,514.33
2023-02-13T18:32:50.871Z,513.92
2023-02-13T18:35:18.786Z,517.13
2023-02-13T18:37:45.494Z,523.78
2023-02-13T18:40:14.844Z,513.97
2023-02-13T18:42:41.443Z,520.57
2023-02-13T18:45:08.525Z,515.72
2023-02-13T18:47:35.144Z,516.20
2023-02-13T18:50:01.740Z,523.83
2023-02-13T18:52:28.390Z,521.22
2023-02-13T18:54:55.548Z,517.20
2023-02-13T18:57:22.285Z,514.50
2023-02-13T18:59:48.894Z,525.50
2023-02-13T19:02:15.561Z,524.97
2023-02-13T19:04:42.384Z,525.03
2023-02-13T19:07:08.999Z,528.28
2023-02-13T19:09:39.938Z,530.95
2023-02-13T19:12:07.414Z,531.03
2023-02-13T19:14:34.112Z,524.83
2023-02-13T19:17:00.788Z,531.22
2023-02-13T19:19:27.642Z,533.03
2023-02-13T19:21:54.340Z,539.42
2023-02-13T19:24:20.953Z,532.83
2023-02-13T19:26:47.569Z,532.08
2023-02-13T19:29:14.228Z,531.25
2023-02-13T19:31:41.410Z,538.78
2023-02-13T19:34:08.202Z,539.03
2023-02-13T19:36:34.981Z,529.13
2023-02-13T19:39:04.387Z,530.40
2023-02-13T19:41:32.730Z,535.92
2023-02-13T19:44:00.339Z,537.92
2023-02-13T19:46:31.632Z,537.20
2023-02-13T19:48:59.158Z,537.50
2023-02-13T19:51:28.390Z,544.15
2023-02-13T19:53:57.520Z,602.83
2023-02-13T19:56:24.627Z,565.13
2023-02-13T19:58:51.275Z,561.63
2023-02-13T20:01:20.825Z,552.30
2023-02-13T20:03:48.986Z,568.30
2023-02-13T20:06:22.447Z,565.78
2023-02-13T20:08:49.654Z,569.13
2023-02-13T20:11:17.974Z,570.55
2023-02-13T20:13:44.606Z,564.80
2023-02-13T20:16:14.715Z,571.10
2023-02-13T20:18:41.764Z,571.22
2023-02-13T20:21:13.890Z,571.45
2023-02-13T20:23:41.659Z,575.90
2023-02-13T20:26:13.846Z,567.05
2023-02-13T20:28:41.695Z,576.05
2023-02-13T20:31:13.748Z,576.03
2023-02-13T20:33:40.566Z,568.47
2023-02-13T20:36:22.016Z,573.03
2023-02-13T20:38:50.449Z,570.03
2023-02-13T20:41:23.141Z,573.80
2023-02-13T20:43:49.798Z,574.05
2023-02-13T20:46:17.368Z,572.03
2023-02-13T20:48:46.850Z,582.28
2023-02-13T20:51:14.674Z,581.80
2023-02-13T20:53:42.169Z,577.85
2023-02-13T20:56:15.256Z,569.33
2023-02-13T20:58:43.338Z,572.40
2023-02-13T21:01:18.587Z,571.45
2023-02-13T21:03:47.805Z,573.33
2023-02-13T21:06:14.491Z,572.83
2023-02-13T21:08:43.593Z,577.08
2023-02-13T21:11:10.262Z,574.15
2023-02-13T21:13:37.063Z,579.20
2023-02-13T21:16:13.296Z,579.73
2023-02-13T21:18:41.182Z,583.53
2023-02-13T21:21:10.011Z,582.47
2023-02-13T21:23:37.148Z,577.45
2023-02-13T21:26:10.950Z,567.15
2023-02-13T21:28:38.564Z,573.55
2023-02-13T21:31:10.638Z,571.70
2023-02-13T21:33:37.542Z,561.80
2023-02-13T21:36:06.906Z,562.65
2023-02-13T21:38:34.792Z,550.20
2023-02-13T21:41:05.450Z,543.13
2023-02-13T21:43:37.378Z,548.78
2023-02-13T21:46:18.875Z,557.60
2023-02-13T21:48:46.713Z,552.58
2023-02-13T21:51:18.803Z,534.03
2023-02-13T21:53:47.220Z,532.60
2023-02-13T21:56:16.232Z,531.25
2023-02-13T21:58:44.201Z,550.15
2023-02-13T22:01:25.577Z,552.27
2023-02-13T22:04:00.813Z,547.35
2023-02-13T22:06:29.354Z,535.08
2023-02-13T22:08:57.999Z,543.42
2023-02-13T22:11:27.084Z,538.45
2023-02-13T22:13:59.956Z,542.60
2023-02-13T22:16:26.774Z,557.00
2023-02-13T22:18:54.373Z,566.63
2023-02-13T22:21:24.044Z,561.17
2023-02-13T22:23:51.051Z,557.50
2023-02-13T22:26:29.807Z,545.38
2023-02-13T22:29:00.682Z,554.67
2023-02-13T22:31:28.051Z,554.15
2023-02-13T22:34:03.493Z,568.17
2023-02-13T22:36:35.354Z,558.78
2023-02-13T22:39:02.075Z,545.38
2023-02-13T22:41:29.017Z,544.70
2023-02-13T22:43:55.723Z,548.67
2023-02-13T22:46:25.618Z,546.05
2023-02-13T22:48:53.205Z,542.22
2023-02-13T22:51:32.054Z,559.05
2023-02-13T22:53:59.237Z,558.22
2023-02-13T22:56:28.321Z,566.25
2023-02-13T22:58:55.467Z,546.60
2023-02-13T23:01:24.325Z,546.33
2023-02-13T23:03:51.397Z,540.87
2023-02-13T23:06:19.198Z,539.78
2023-02-13T23:08:46.031Z,538.50
2023-02-13T23:11:34.182Z,531.88
2023-02-13T23:14:01.367Z,531.47
2023-02-13T23:16:28.407Z,532.00
2023-02-13T23:18:56.589Z,532.00
2023-02-13T23:21:25.053Z,532.57
2023-02-13T23:23:51.982Z,529.28
2023-02-13T23:26:18.723Z,529.28
2023-02-13T23:28:45.608Z,523.83
2023-02-13T23:31:12.613Z,524.17
2023-02-13T23:33:39.351Z,524.50
2023-02-13T23:36:06.676Z,523.58
2023-02-13T23:38:33.383Z,525.72
2023-02-13T23:41:07.757Z,520.13
2023-02-13T23:43:35.041Z,515.92
2023-02-13T23:46:06.297Z,520.78
2023-02-13T23:48:33.634Z,519.07
2023-02-13T23:51:00.953Z,523.40
2023-02-13T23:53:28.021Z,519.38
2023-02-13T23:55:55.003Z,521.75
2023-02-13T23:58:21.675Z,519.45
